Time;durP1;ratioP1;P1;durP2;ratioP2;P2;SDS_P1;SDS_P2;PMS_P1;PMS_P2;Temp;Humidity;BMP_temperature;BMP_pressure;BME280_temperature;BME280_humidity;BME280_pressure;Samples;Min_cycle;Max_cycle;Signal;HPM_P1;HPM_P2
2021/01/15 00:01:05;;;;;;;6.75;4.00;;;;;;;-1.00;74.95;98889.13;4897694;29;20096;-74
2021/01/15 00:03:35;;;;;;;7.65;3.47;;;;;;;-1.02;75.09;98885.66;4897856;29;20031;-73
2021/01/15 00:06:05;;;;;;;;;;;;;;;-0.98;75.43;98881.53;4898320;29;20040;-71
2021/01/15 00:08:31;;;;;;;5.22;2.88;;;;;;;-1.01;75.13;98887.41;4897699;29;19960;-71
2021/01/15 00:10:57;;;;;;;9.30;4.07;;;;;;;-1.02;75.21;98879.72;4897713;29;20104;-72
2021/01/15 00:13:22;;;;;;;4.90;3.70;;;;;;;-1.07;74.79;98893.13;4897505;29;20024;-72
2021/01/15 00:15:48;;;;;;;6.95;3.40;;;;;;;-0.99;74.47;98880.66;4897727;29;20025;-73
2021/01/15 00:18:13;;;;;;;6.35;3.35;;;;;;;-1.00;74.26;98889.13;4897529;29;20390;-74
2021/01/15 00:20:38;;;;;;;5.45;2.90;;;;;;;-0.97;74.48;98889.19;4897373;29;20147;-74
2021/01/15 00:23:04;;;;;;;5.22;3.03;;;;;;;-0.99;74.61;98882.34;4897468;29;20028;-74
2021/01/15 00:25:29;;;;;;;4.30;3.53;;;;;;;-1.03;74.70;98889.00;4897709;29;20020;-72
2021/01/15 00:27:54;;;;;;;3.63;2.67;;;;;;;-1.01;74.38;98892.50;4897373;29;20048;-74
2021/01/15 00:30:20;;;;;;;8.15;2.70;;;;;;;-1.01;74.03;98882.31;4897495;29;20107;-72
2021/01/15 00:32:46;;;;;;;5.57;3.63;;;;;;;-1.01;74.55;98887.41;4897225;29;20172;-74
2021/01/15 00:35:12;;;;;;;5.88;2.90;;;;;;;-1.02;73.97;98885.66;4897360;29;20446;-74
2021/01/15 00:37:38;;;;;;;5.30;2.92;;;;;;;-1.07;74.18;98888.06;4896060;29;20115;-74
2021/01/15 00:40:04;;;;;;;6.40;2.90;;;;;;;-1.05;73.85;98891.53;4897430;29;20402;-74
2021/01/15 00:42:31;;;;;;;5.05;2.80;;;;;;;-1.08;73.62;98890.56;4896973;29;20036;-74
2021/01/15 00:44:57;;;;;;;6.68;2.63;;;;;;;-1.08;73.57;98886.34;4897303;29;20406;-74
2021/01/15 00:47:23;;;;;;;3.65;2.60;;;;;;;-1.10;73.48;98890.53;4897243;29;20076;-74
2021/01/15 00:49:51;;;;;;;3.58;2.70;;;;;;;-1.10;73.06;98895.59;4897073;29;20033;-74
2021/01/15 00:52:17;;;;;;;5.15;2.47;;;;;;;-1.08;72.74;98888.03;4896569;29;20024;-73
2021/01/15 00:54:42;;;;;;;6.55;2.85;;;;;;;-1.02;72.95;98897.50;4896660;29;20091;-74
2021/01/15 00:57:08;;;;;;;4.95;2.50;;;;;;;-1.06;73.05;98894.03;4897079;29;20033;-74
2021/01/15 00:59:33;;;;;;;3.65;2.50;;;;;;;-1.04;73.25;98892.38;4897002;29;20033;-74
2021/01/15 07:01:25;;;;;;;12.13;7.22;;;;;;;-3.82;83.00;99247.09;5720132;23;20091;-69
2021/01/15 07:03:51;;;;;;;15.30;8.02;;;;;;;-3.84;83.50;99239.44;4898127;29;20053;-69
2021/01/15 07:06:36;;;;;;;18.92;7.13;;;;;;;-3.84;82.77;99243.63;4898963;29;20549;-69
2021/01/15 07:09:08;;;;;;;15.73;7.70;;;;;;;-3.83;83.31;99252.94;4899109;29;20042;-69
2021/01/15 07:11:40;;;;;;;13.50;7.50;;;;;;;-3.81;82.94;99248.84;4898732;29;20048;-69
2021/01/15 07:14:06;;;;;;;10.82;7.47;;;;;;;-3.79;83.25;99257.38;4899509;29;20071;-72
2021/01/15 07:16:34;;;;;;;12.07;8.15;;;;;;;-3.82;82.90;99253.03;4898772;29;20048;-73
2021/01/15 07:19:05;;;;;;;10.70;7.25;;;;;;;-3.83;83.11;99255.50;4898826;29;20051;-72
2021/01/15 07:21:39;;;;;;;15.27;7.70;;;;;;;-3.78;82.68;99269.22;4898513;29;20032;-72
2021/01/15 07:24:09;;;;;;;13.43;7.28;;;;;;;-3.76;83.17;99267.66;4898874;29;20055;-73
2021/01/15 07:26:40;;;;;;;13.10;7.88;;;;;;;-3.74;82.50;99266.03;4898650;29;20024;-73
2021/01/15 07:29:16;;;;;;;13.40;7.85;;;;;;;-3.69;82.16;99269.66;4897544;29;20028;-73
2021/01/15 07:31:52;;;;;;;13.68;8.15;;;;;;;-3.62;82.23;99271.69;4898227;29;20075;-73
2021/01/15 07:34:22;;;;;;;13.75;7.90;;;;;;;-3.59;81.92;99269.28;4897466;29;20406;-73
2021/01/15 07:36:48;;;;;;;11.25;7.90;;;;;;;-3.52;81.81;99272.97;4898523;29;20089;-72
2021/01/15 07:39:16;;;;;;;12.73;8.15;;;;;;;-3.49;81.49;99279.03;4898524;29;20056;-73
2021/01/15 07:41:52;;;;;;;14.32;8.38;;;;;;;-3.33;81.28;99278.06;4898011;29;20028;-69
2021/01/15 07:44:27;;;;;;;20.67;9.45;;;;;;;-3.40;81.13;99283.63;4898407;29;20025;-69
2021/01/15 07:46:53;;;;;;;15.20;9.55;;;;;;;-3.33;81.13;99280.59;4898229;29;20028;-69
2021/01/15 07:49:20;;;;;;;16.73;11.48;;;;;;;-3.24;81.25;99290.25;4898368;29;20052;-69
2021/01/15 07:52:08;;;;;;;16.77;9.25;;;;;;;-3.23;80.78;99292.88;4897691;29;20029;-69
2021/01/15 07:55:00;;;;;;;12.98;8.70;;;;;;;-3.26;81.13;99291.88;4898514;29;20037;-69
2021/01/15 07:57:27;;;;;;;11.73;8.82;;;;;;;-3.30;81.02;99290.84;4898016;29;20036;-69
2021/01/15 07:59:52;;;;;;;16.85;8.75;;;;;;;-3.21;81.18;99295.47;4898090;29;20122;-69
2021/01/15 08:02:19;;;;;;;11.68;7.93;;;;;;;-3.14;81.10;99302.56;4897390;29;20075;-69
2021/01/15 08:04:45;;;;;;;14.95;8.52;;;;;;;-3.06;80.61;99306.28;4897863;29;20040;-69
2021/01/15 08:07:10;;;;;;;16.30;8.75;;;;;;;-3.07;80.54;99312.16;4897812;29;20040;-69
2021/01/15 08:09:39;;;;;;;16.88;8.70;;;;;;;-2.79;80.29;99310.84;4897783;29;20024;-69
2021/01/15 08:12:05;;;;;;;17.92;10.00;;;;;;;-2.82;79.37;99313.22;4897464;29;20087;-69
2021/01/15 08:14:32;;;;;;;19.67;9.18;;;;;;;-2.54;78.69;99321.22;4897789;29;20032;-69
2021/01/15 08:16:57;;;;;;;16.27;9.70;;;;;;;-2.15;77.94;99314.41;4897681;29;20028;-69
2021/01/15 08:19:24;;;;;;;21.33;10.32;;;;;;;-1.08;74.20;99317.69;4897526;29;20046;-69
2021/01/15 08:21:50;;;;;;;17.25;9.05;;;;;;;0.03;70.31;99315.63;4897426;29;20094;-69
2021/01/15 08:24:18;;;;;;;12.98;8.55;;;;;;;1.48;64.47;99314.81;4897539;29;20036;-69
2021/01/15 08:26:52;;;;;;;9.48;7.20;;;;;;;2.19;61.22;99316.63;4897515;29;20505;-69
2021/01/15 08:29:27;;;;;;;13.68;8.95;;;;;;;1.37;62.49;99330.69;4897493;29;20167;-69
2021/01/15 08:31:59;;;;;;;13.35;8.80;;;;;;;1.18;63.32;99330.16;4895908;29;20029;-69
2021/01/15 08:34:32;;;;;;;14.48;8.50;;;;;;;0.48;64.95;99338.25;4897514;29;20432;-69
2021/01/15 08:37:00;;;;;;;12.90;8.55;;;;;;;0.75;65.13;99344.22;4896254;29;20049;-69
2021/01/15 08:39:26;;;;;;;11.45;8.00;;;;;;;0.74;65.29;99347.59;4897332;29;20032;-69
2021/01/15 08:41:56;;;;;;;14.90;9.02;;;;;;;1.33;63.06;99344.19;4897110;29;20028;-69
2021/01/15 08:44:23;;;;;;;13.13;8.27;;;;;;;2.79;59.19;99337.59;4896011;29;20060;-69
2021/01/15 08:46:50;;;;;;;14.98;9.60;;;;;;;2.96;56.92;99335.44;4897245;29;20028;-69
2021/01/15 08:49:16;;;;;;;11.18;7.50;;;;;;;2.92;57.01;99353.25;4895883;29;20064;-69
2021/01/15 08:51:49;;;;;;;13.75;8.73;;;;;;;5.45;50.95;99340.34;4897008;29;20119;-69
2021/01/15 08:54:15;;;;;;;10.50;8.18;;;;;;;5.73;48.95;99342.38;4897585;29;20039;-69
2021/01/15 08:56:43;;;;;;;13.77;7.97;;;;;;;3.99;53.28;99353.66;4897112;29;20032;-68
2021/01/15 08:59:10;;;;;;;13.35;7.80;;;;;;;4.90;51.63;99356.81;4897224;29;20100;-70
2021/01/15 09:01:38;;;;;;;11.43;7.80;;;;;;;4.85;50.97;99358.44;4896845;29;20024;-69
2021/01/15 09:04:06;;;;;;;14.68;8.48;;;;;;;5.00;50.76;99372.34;4895922;29;20028;-69
2021/01/15 09:06:33;;;;;;;12.85;8.65;;;;;;;3.46;53.40;99368.03;4897139;29;20142;-69
2021/01/15 09:09:03;;;;;;;12.95;9.10;;;;;;;6.46;46.48;99356.81;4896933;29;20446;-69
2021/01/15 09:11:32;;;;;;;12.18;8.98;;;;;;;5.26;49.66;99368.41;4896708;29;20059;-69
2021/01/15 09:13:58;;;;;;;12.05;7.68;;;;;;;5.86;47.01;99371.69;4896561;29;20033;-69
2021/01/15 09:16:25;;;;;;;11.52;7.40;;;;;;;7.33;44.29;99368.50;4896908;29;20111;-69
2021/01/15 09:18:56;;;;;;;12.68;8.07;;;;;;;7.84;43.15;99372.13;4896772;29;20037;-69
2021/01/15 09:21:22;;;;;;;11.40;7.32;;;;;;;10.03;38.35;99367.44;4896704;29;20061;-70
2021/01/15 09:23:48;;;;;;;11.98;8.05;;;;;;;7.90;42.05;99379.88;4896672;29;20060;-70
2021/01/15 09:26:16;;;;;;;13.00;8.93;;;;;;;6.55;43.92;99395.50;4897034;29;20028;-70
2021/01/15 09:28:41;;;;;;;13.32;8.07;;;;;;;8.09;41.94;99385.94;4896762;29;20461;-70
2021/01/15 09:31:06;;;;;;;10.95;7.97;;;;;;;9.04;38.33;99392.84;4896683;29;20119;-70
2021/01/15 09:33:32;;;;;;;12.20;8.05;;;;;;;9.98;37.55;99389.91;4896890;29;20036;-70
2021/01/15 09:35:57;;;;;;;12.18;7.97;;;;;;;9.06;38.04;99399.75;4896725;29;20088;-70
2021/01/15 09:38:23;;;;;;;11.65;7.80;;;;;;;9.34;39.39;99408.31;4896762;29;20427;-70
2021/01/15 09:40:48;;;;;;;10.00;7.28;;;;;;;7.83;40.89;99419.44;4896284;29;20025;-70
2021/01/15 09:43:13;;;;;;;11.82;7.90;;;;;;;7.02;43.09;99416.44;4895532;29;20493;-69
2021/01/15 09:45:39;;;;;;;12.55;7.70;;;;;;;9.14;38.65;99413.53;4896587;29;20037;-69
2021/01/15 09:48:08;;;;;;;13.93;7.78;;;;;;;9.24;38.69;99410.06;4896824;29;20032;-70
2021/01/15 09:50:33;;;;;;;10.65;7.68;;;;;;;10.90;36.34;99410.00;4896229;29;20069;-70
2021/01/15 09:52:59;;;;;;;20.02;7.78;;;;;;;8.56;39.97;99417.84;4896550;29;20112;-70
2021/01/15 09:55:24;;;;;;;12.60;8.65;;;;;;;9.65;37.88;99422.00;4896499;29;20032;-70
2021/01/15 09:57:49;;;;;;;11.38;7.82;;;;;;;9.45;37.67;99411.72;4896520;29;20036;-69
2021/01/15 10:00:16;;;;;;;16.30;8.60;;;;;;;9.37;37.59;99421.22;4896214;29;20028;-69
2021/01/15 10:02:41;;;;;;;12.55;8.43;;;;;;;8.65;39.74;99423.88;4896497;29;20031;-69
2021/01/15 10:05:07;;;;;;;12.55;7.80;;;;;;;8.18;39.60;99431.56;4896429;29;20486;-70
2021/01/15 10:07:32;;;;;;;14.00;7.43;;;;;;;10.74;36.68;99413.59;4896469;29;20390;-70
2021/01/15 10:09:58;;;;;;;10.65;7.57;;;;;;;12.22;33.35;99408.47;4896027;29;20040;-70
2021/01/15 10:12:23;;;;;;;11.30;7.85;;;;;;;11.51;33.02;99417.16;4886917;29;20484;-70
2021/01/15 10:14:48;;;;;;;13.50;7.60;;;;;;;11.43;35.05;99416.38;4881951;29;20063;-70
2021/01/15 10:17:13;;;;;;;9.95;7.38;;;;;;;10.51;36.07;99430.19;4882020;29;20029;-70
2021/01/15 10:19:39;;;;;;;12.25;8.65;;;;;;;10.99;35.60;99430.66;4881910;29;20040;-68
2021/01/15 10:22:04;;;;;;;9.32;8.32;;;;;;;9.42;37.50;99439.31;4881234;29;20071;-67
2021/01/15 10:24:30;;;;;;;10.18;8.00;;;;;;;9.74;36.85;99434.03;4901353;29;20076;-68
2021/01/15 10:26:55;;;;;;;11.35;7.95;;;;;;;9.49;37.55;99433.25;4882350;29;20115;-68
2021/01/15 10:29:20;;;;;;;13.35;8.30;;;;;;;10.86;36.03;99421.25;4891205;29;20056;-67
2021/01/15 10:31:54;;;;;;;16.25;8.68;;;;;;;12.73;32.68;99417.19;4890558;29;20107;-68
2021/01/15 10:34:20;;;;;;;10.40;7.75;;;;;;;9.58;37.60;99440.16;4891074;29;20093;-68
2021/01/15 10:36:46;;;;;;;9.90;8.02;;;;;;;11.20;34.12;99431.31;4889127;29;20115;-68
2021/01/15 10:39:13;;;;;;;8.80;7.20;;;;;;;12.43;33.32;99422.91;4891301;29;20554;-68
2021/01/15 10:41:41;;;;;;;10.20;8.05;;;;;;;12.68;32.19;99423.38;4890555;29;20041;-68
2021/01/15 10:44:08;;;;;;;10.00;7.28;;;;;;;12.01;33.39;99426.06;4890871;29;20053;-68
2021/01/15 10:46:39;;;;;;;11.80;7.97;;;;;;;12.40;32.61;99431.59;4890761;29;20029;-68
2021/01/15 10:49:05;;;;;;;12.48;7.82;;;;;;;9.95;35.24;99440.84;4890836;29;20033;-68
2021/01/15 10:51:32;;;;;;;13.82;7.70;;;;;;;10.71;34.67;99434.34;4886527;29;20032;-68
2021/01/15 10:53:57;;;;;;;9.50;7.45;;;;;;;10.63;36.10;99430.94;4890840;29;21104;-68
2021/01/15 10:56:24;;;;;;;11.85;7.10;;;;;;;12.45;32.51;99427.16;4890580;29;20033;-68
2021/01/15 10:58:49;;;;;;;12.48;7.47;;;;;;;13.66;31.07;99437.25;4890716;29;20809;-69
2021/01/15 11:01:14;;;;;;;9.45;7.10;;;;;;;12.74;32.67;99436.25;4887888;29;20490;-68
2021/01/15 11:03:42;;;;;;;16.50;7.70;;;;;;;12.11;32.32;99438.94;4890482;29;20025;-68
2021/01/15 11:06:08;;;;;;;12.05;8.35;;;;;;;10.08;36.06;99446.81;4884723;29;20111;-68
2021/01/15 11:08:34;;;;;;;13.00;8.13;;;;;;;9.16;38.50;99452.31;4886336;29;20035;-68
2021/01/15 11:10:59;;;;;;;11.35;8.35;;;;;;;8.49;39.93;99456.59;4884740;29;20494;-68
2021/01/15 11:13:24;;;;;;;12.48;9.27;;;;;;;7.61;43.79;99458.88;4890296;29;20029;-68
2021/01/15 11:15:50;;;;;;;10.98;8.05;;;;;;;6.07;45.40;99463.66;4890323;29;20024;-68
2021/01/15 11:18:15;;;;;;;20.23;13.32;;;;;;;6.27;46.07;99457.00;4890195;29;20043;-70
2021/01/15 11:20:43;;;;;;;13.23;8.55;;;;;;;5.12;48.01;99459.81;4888782;29;20033;-70
2021/01/15 11:23:08;;;;;;;27.70;13.95;;;;;;;5.31;48.61;99461.81;4888869;29;20040;-68
2021/01/15 11:25:34;;;;;;;16.08;9.00;;;;;;;5.41;49.42;99462.78;4884410;29;20040;-68
2021/01/15 11:27:59;;;;;;;18.80;11.10;;;;;;;6.29;47.17;99451.91;4889557;29;20029;-68
2021/01/15 11:30:24;;;;;;;13.30;8.77;;;;;;;9.38;41.04;99446.22;4888574;29;20462;-67
2021/01/15 11:32:50;;;;;;;11.80;7.55;;;;;;;10.58;37.63;99430.97;4889777;29;20031;-73
2021/01/15 11:35:15;;;;;;;15.35;9.45;;;;;;;12.02;34.59;99427.78;4889879;29;20047;-70
2021/01/15 11:37:40;;;;;;;15.38;9.90;;;;;;;11.28;34.77;99438.16;4889511;29;20039;-70
2021/01/15 11:40:08;;;;;;;25.25;9.93;;;;;;;12.43;33.84;99418.56;4887355;29;20025;-72
2021/01/15 11:42:34;;;;;;;11.55;7.70;;;;;;;12.31;33.96;99419.56;4889469;29;20029;-73
2021/01/15 11:44:59;;;;;;;41.67;18.42;;;;;;;12.68;32.58;99431.16;4883985;29;20032;-70
2021/01/15 11:47:25;;;;;;;21.02;12.48;;;;;;;11.56;35.23;99433.53;4883663;29;20039;-72
2021/01/15 11:49:50;;;;;;;29.38;14.77;;;;;;;12.22;33.25;99434.44;4886921;29;20180;-72
2021/01/15 11:52:15;;;;;;;13.02;8.93;;;;;;;11.90;34.14;99422.75;4889330;29;20032;-73
2021/01/15 11:54:41;;;;;;;15.82;9.55;;;;;;;12.65;33.12;99423.41;4889711;29;20619;-73
2021/01/15 11:57:06;;;;;;;13.80;9.25;;;;;;;12.64;32.86;99417.34;4889470;29;20480;-71
2021/01/15 11:59:31;;;;;;;48.15;21.17;;;;;;;12.00;34.71;99423.50;4883735;29;20367;-70
2021/01/15 12:01:57;;;;;;;14.07;8.68;;;;;;;9.97;36.46;99428.75;4884498;29;20510;-73
2021/01/15 12:04:23;;;;;;;13.57;9.10;;;;;;;11.66;35.63;99417.84;4889395;29;20032;-70
2021/01/15 12:06:53;;;;;;;10.88;8.23;;;;;;;11.39;34.07;99417.28;4889447;29;20379;-70
2021/01/15 12:09:18;;;;;;;30.40;14.13;;;;;;;11.84;33.63;99415.03;4888070;29;20033;-70
2021/01/15 12:11:43;;;;;;;52.25;23.42;;;;;;;10.86;35.88;99423.84;4885154;29;20036;-70
2021/01/15 12:14:09;;;;;;;35.80;15.98;;;;;;;11.31;35.49;99413.88;4883377;29;20756;-73
2021/01/15 12:16:34;;;;;;;62.70;32.88;;;;;;;11.53;34.14;99417.97;4884611;29;21094;-72
2021/01/15 12:19:00;;;;;;;15.10;9.73;;;;;;;10.82;36.12;99416.97;4883153;29;20120;-72
2021/01/15 12:21:25;;;;;;;23.13;12.50;;;;;;;11.40;36.70;99420.72;4886740;29;20503;-72
2021/01/15 12:23:51;;;;;;;12.38;9.07;;;;;;;11.40;35.11;99420.72;4883148;29;20037;-72
2021/01/15 12:26:16;;;;;;;13.60;8.80;;;;;;;10.17;36.87;99420.88;4883519;29;20029;-72
2021/01/15 12:28:42;;;;;;;11.18;7.72;;;;;;;11.70;35.40;99414.31;4883093;29;20057;-73
2021/01/15 12:31:07;;;;;;;8.73;6.55;;;;;;;8.20;39.72;99424.69;4886724;29;20064;-70
2021/01/15 12:33:32;;;;;;;8.95;6.28;;;;;;;11.42;35.13;99412.06;4882165;29;20061;-70
2021/01/15 12:35:58;;;;;;;5.65;5.13;;;;;;;7.84;40.66;99436.63;4883526;29;20037;-70
2021/01/15 12:38:24;;;;;;;7.25;5.10;;;;;;;8.87;39.38;99424.75;4885153;29;20024;-73
2021/01/15 12:40:53;;;;;;;6.60;5.60;;;;;;;6.04;45.10;99430.19;4887152;29;20043;-70
2021/01/15 12:43:18;;;;;;;7.90;5.50;;;;;;;5.00;47.39;99434.81;4888616;29;20075;-70
2021/01/15 12:45:46;;;;;;;7.63;5.95;;;;;;;4.15;49.52;99434.25;4882789;29;20299;-70
2021/01/15 12:48:12;;;;;;;6.97;5.50;;;;;;;3.82;51.86;99439.59;4888173;29;20083;-72
2021/01/15 12:50:38;;;;;;;8.65;5.60;;;;;;;4.08;49.37;99432.44;4882222;29;20039;-72
2021/01/15 12:53:04;;;;;;;10.05;5.43;;;;;;;4.62;49.82;99431.66;4888610;29;20036;-74
2021/01/15 12:55:31;;;;;;;9.60;6.05;;;;;;;4.72;49.36;99425.84;4888563;29;20032;-72
2021/01/15 12:57:59;;;;;;;9.68;7.47;;;;;;;3.97;51.36;99433.94;4886453;29;20120;-72
2021/01/15 13:00:25;;;;;;;6.95;5.38;;;;;;;3.80;52.07;99426.78;4888022;29;20038;-70
2021/01/15 13:02:51;;;;;;;8.52;5.70;;;;;;;3.40;53.63;99440.47;4888529;29;20466;-70
2021/01/15 13:05:16;;;;;;;10.73;6.18;;;;;;;4.24;51.41;99419.03;4888344;29;20039;-69
2021/01/15 13:07:42;;;;;;;11.35;7.50;;;;;;;4.45;52.79;99415.09;4883107;29;20066;-69
2021/01/15 13:10:09;;;;;;;11.43;7.82;;;;;;;4.21;52.84;99419.00;4898634;29;20032;-72
2021/01/15 13:12:35;;;;;;;10.88;6.82;;;;;;;3.10;55.02;99433.00;4882395;29;20083;-72
2021/01/15 13:15:01;;;;;;;13.02;7.10;;;;;;;3.17;56.17;99429.72;4885755;29;20491;-72
2021/01/15 13:17:26;;;;;;;15.48;8.82;;;;;;;3.59;55.88;99428.94;4882664;29;20061;-72
2021/01/15 13:19:51;;;;;;;13.38;8.00;;;;;;;2.64;57.98;99442.16;4882047;29;20116;-72
2021/01/15 13:22:17;;;;;;;15.73;8.43;;;;;;;2.86;58.21;99440.13;4884798;29;20494;-72
2021/01/15 13:24:42;;;;;;;16.67;9.52;;;;;;;2.55;59.14;99444.47;4885831;29;20395;-72
2021/01/15 13:27:08;;;;;;;15.13;8.80;;;;;;;2.27;59.12;99448.94;4882401;29;20033;-70
2021/01/15 13:29:33;;;;;;;13.63;8.73;;;;;;;2.14;59.87;99457.09;4882871;29;20493;-70
2021/01/15 13:31:59;;;;;;;14.63;9.18;;;;;;;1.95;61.27;99454.88;4886749;29;20024;-70
2021/01/15 13:34:24;;;;;;;15.57;9.32;;;;;;;1.86;62.63;99464.81;4888157;29;20122;-70
2021/01/15 13:36:50;;;;;;;15.85;9.73;;;;;;;1.80;62.55;99463.84;4888114;29;20029;-70
2021/01/15 13:39:15;;;;;;;22.48;10.05;;;;;;;1.69;62.09;99466.91;4888424;29;20150;-70
2021/01/15 13:41:41;;;;;;;17.65;9.02;;;;;;;2.20;62.14;99466.59;4884096;29;20032;-70
2021/01/15 13:44:07;;;;;;;14.98;9.48;;;;;;;1.93;61.74;99466.72;4882361;29;20150;-70
2021/01/15 13:46:33;;;;;;;13.65;9.15;;;;;;;1.87;61.87;99472.53;4887866;29;20060;-70
2021/01/15 13:48:59;;;;;;;20.42;9.77;;;;;;;2.02;61.46;99482.31;4882269;29;20040;-70
2021/01/15 13:51:25;;;;;;;14.15;9.02;;;;;;;1.83;62.50;99483.47;4884460;29;20021;-70
2021/01/15 13:53:53;;;;;;;13.60;9.50;;;;;;;1.80;62.63;99497.06;4884383;29;20484;-70
2021/01/15 13:56:22;;;;;;;14.82;9.80;;;;;;;1.70;62.00;99492.50;4887833;29;20037;-72
2021/01/15 13:58:47;;;;;;;17.97;10.17;;;;;;;1.98;62.18;99494.16;4888069;29;20033;-70
2021/01/15 14:01:12;;;;;;;13.77;9.40;;;;;;;1.84;62.20;99504.78;4887429;29;20051;-70
2021/01/15 14:03:38;;;;;;;13.60;9.13;;;;;;;2.02;62.42;99507.84;4885343;29;20343;-72
2021/01/15 14:06:03;;;;;;;16.08;10.27;;;;;;;2.08;62.77;99508.06;4891599;29;20084;-72
2021/01/15 14:08:29;;;;;;;13.20;8.57;;;;;;;1.87;61.49;99512.53;4891258;29;20077;-72
2021/01/15 14:10:55;;;;;;;14.95;9.15;;;;;;;2.04;60.77;99521.56;4889348;29;20509;-72
2021/01/15 14:13:21;;;;;;;12.95;8.13;;;;;;;1.59;61.40;99526.19;4885134;29;20641;-72
2021/01/15 14:15:46;;;;;;;13.05;7.97;;;;;;;1.84;61.17;99527.78;4885501;29;20406;-70
2021/01/15 14:18:11;;;;;;;14.93;8.13;;;;;;;2.29;61.74;99529.06;4885220;29;20111;-71
2021/01/15 14:20:37;;;;;;;16.17;8.38;;;;;;;1.93;61.05;99533.16;4885483;29;20032;-70
2021/01/15 14:23:02;;;;;;;16.17;8.05;;;;;;;2.01;61.03;99539.34;4885414;29;20032;-70
2021/01/15 14:25:27;;;;;;;10.23;7.03;;;;;;;1.75;61.91;99544.59;4888559;29;20035;-70
2021/01/15 14:27:53;;;;;;;11.82;6.97;;;;;;;1.95;60.39;99546.84;4891136;29;21377;-71
2021/01/15 14:30:18;;;;;;;10.60;7.20;;;;;;;1.78;60.68;99547.22;4885016;29;20029;-70
2021/01/15 14:32:45;;;;;;;11.55;7.35;;;;;;;2.23;60.17;99551.06;4891023;29;20549;-70
2021/01/15 14:35:11;;;;;;;9.63;6.55;;;;;;;2.34;59.25;99541.13;4885036;29;20060;-70
2021/01/15 14:37:36;;;;;;;11.57;7.32;;;;;;;2.53;59.76;99543.34;4890868;29;20108;-70
2021/01/15 14:40:02;;;;;;;12.65;7.80;;;;;;;2.38;59.82;99554.03;4875548;29;20429;-70
2021/01/15 14:42:27;;;;;;;11.30;7.82;;;;;;;2.35;59.76;99558.19;4885012;29;20028;-70
2021/01/15 14:44:53;;;;;;;13.48;8.98;;;;;;;2.15;60.71;99555.94;4884809;29;20043;-70
2021/01/15 14:47:18;;;;;;;14.63;8.35;;;;;;;2.03;61.83;99556.47;4885024;29;20071;-70
2021/01/15 14:49:44;;;;;;;14.93;8.80;;;;;;;2.10;61.50;99561.75;4890869;29;20080;-70
2021/01/15 14:52:12;;;;;;;14.90;9.10;;;;;;;1.97;62.09;99568.19;4890272;29;20087;-70
2021/01/15 14:54:38;;;;;;;14.75;8.82;;;;;;;1.77;62.23;99573.59;4885566;29;20131;-70
2021/01/15 14:57:04;;;;;;;14.98;8.50;;;;;;;1.59;63.33;99575.59;4890480;29;20050;-70
2021/01/15 14:59:29;;;;;;;15.32;8.90;;;;;;;1.52;63.67;99586.44;4890705;29;20183;-70
2021/01/15 15:01:55;;;;;;;10.75;7.63;;;;;;;1.60;66.61;99589.25;4883192;29;20060;-70
2021/01/15 15:04:21;;;;;;;14.63;9.25;;;;;;;1.43;64.42;99581.91;4890541;29;20036;-70
2021/01/15 15:06:46;;;;;;;13.45;8.35;;;;;;;1.36;64.85;99589.34;4884611;29;20056;-69
2021/01/15 15:09:12;;;;;;;15.65;8.55;;;;;;;1.59;64.06;99583.25;4886131;29;20039;-70
2021/01/15 15:11:37;;;;;;;15.00;9.60;;;;;;;1.34;65.01;99584.16;4886868;29;20522;-70
2021/01/15 15:14:05;;;;;;;14.55;8.82;;;;;;;1.24;65.17;99590.66;4888047;29;20036;-70
2021/01/15 15:16:31;;;;;;;15.55;9.20;;;;;;;1.15;64.84;99595.47;4890277;29;20529;-70
2021/01/15 15:18:56;;;;;;;13.77;9.13;;;;;;;1.04;64.72;99604.47;4890141;29;20040;-70
2021/01/15 15:21:22;;;;;;;13.98;8.18;;;;;;;0.97;65.33;99600.00;4888546;29;20073;-70
2021/01/15 15:23:47;;;;;;;13.52;8.98;;;;;;;0.96;64.96;99600.78;4890131;29;20402;-70
2021/01/15 15:26:13;;;;;;;14.05;9.45;;;;;;;0.92;65.13;99611.69;4890045;29;20032;-70
2021/01/15 15:28:40;;;;;;;13.60;9.02;;;;;;;1.01;65.49;99606.91;4888950;29;20032;-71
2021/01/15 15:31:06;;;;;;;17.23;8.38;;;;;;;1.07;64.83;99616.47;4887640;29;20061;-70
2021/01/15 15:33:32;;;;;;;15.60;8.85;;;;;;;1.05;65.80;99618.09;4884147;29;20128;-70
2021/01/15 15:35:59;;;;;;;22.55;9.10;;;;;;;1.35;65.56;99619.09;4884936;29;20033;-72
2021/01/15 15:38:24;;;;;;;13.80;9.43;;;;;;;1.11;65.08;99625.94;4889761;29;20033;-70
2021/01/15 15:40:57;;;;;;;12.40;8.50;;;;;;;1.08;65.20;99624.16;4889600;29;20036;-70
2021/01/15 15:43:34;;;;;;;16.52;9.30;;;;;;;1.21;66.10;99626.31;4887763;29;20119;-70
2021/01/15 15:46:15;;;;;;;15.75;9.35;;;;;;;1.20;65.87;99634.78;4889838;29;20170;-70
2021/01/15 15:48:41;;;;;;;14.80;9.15;;;;;;;1.08;67.93;99648.81;4888607;29;20060;-70
2021/01/15 15:51:14;;;;;;;17.00;8.52;;;;;;;1.04;65.61;99637.63;4896670;29;20048;-72
2021/01/15 15:53:40;;;;;;;14.93;8.13;;;;;;;1.06;66.69;99646.19;4887930;29;20132;-72
2021/01/15 15:56:07;;;;;;;12.98;8.50;;;;;;;0.95;67.14;99652.63;4884130;29;20028;-71
2021/01/15 15:58:32;;;;;;;16.90;8.95;;;;;;;0.94;67.42;99651.75;4888392;29;20048;-71
2021/01/15 16:00:57;;;;;;;15.77;8.82;;;;;;;1.06;68.62;99646.19;4885052;29;20037;-71
2021/01/15 16:03:23;;;;;;;16.58;8.30;;;;;;;1.00;68.07;99651.09;4889600;29;20033;-71
2021/01/15 16:05:48;;;;;;;17.67;9.00;;;;;;;0.96;68.03;99654.34;4889481;29;20028;-71
2021/01/15 16:08:13;;;;;;;12.25;7.65;;;;;;;0.87;67.61;99656.59;4888070;29;20056;-71
2021/01/15 16:10:39;;;;;;;12.07;7.72;;;;;;;0.94;67.49;99661.09;4889129;29;20032;-71
2021/01/15 16:13:04;;;;;;;16.60;7.93;;;;;;;0.81;68.15;99659.81;4889271;29;20394;-75
2021/01/15 16:15:29;;;;;;;17.83;9.95;;;;;;;0.93;68.20;99669.59;4887611;29;20128;-71
2021/01/15 16:17:55;;;;;;;17.40;10.05;;;;;;;0.78;68.66;99672.47;4888264;29;20498;-70
2021/01/15 16:20:21;;;;;;;15.38;9.18;;;;;;;1.00;69.06;99672.38;4883370;29;20060;-71
2021/01/15 16:22:56;;;;;;;19.13;8.80;;;;;;;0.92;70.83;99683.13;4889020;29;20060;-71
2021/01/15 16:25:22;;;;;;;14.52;8.95;;;;;;;0.92;70.07;99678.03;4888917;29;20028;-71
2021/01/15 16:27:55;;;;;;;38.08;17.60;;;;;;;1.06;69.71;99681.06;4889029;29;20541;-71
2021/01/15 16:30:22;;;;;;;13.77;9.57;;;;;;;0.80;68.84;99683.56;4886007;29;20063;-71
2021/01/15 16:32:48;;;;;;;16.45;9.52;;;;;;;0.61;70.30;99693.94;4883003;29;20036;-71
2021/01/15 16:35:13;;;;;;;13.25;8.73;;;;;;;0.64;69.85;99686.41;4888671;29;20043;-70
2021/01/15 16:37:39;;;;;;;16.27;8.10;;;;;;;0.56;70.47;99698.00;4883217;29;20063;-70
2021/01/15 16:40:09;;;;;;;14.60;8.68;;;;;;;0.47;70.71;99698.53;4888598;29;20407;-69
2021/01/15 16:42:37;;;;;;;14.00;9.15;;;;;;;0.60;71.34;99705.81;4887927;29;20048;-69
2021/01/15 16:45:05;;;;;;;14.32;7.82;;;;;;;0.52;70.99;99707.22;4882753;29;20037;-69
2021/01/15 16:47:30;;;;;;;15.50;8.40;;;;;;;0.49;70.48;99696.91;4888570;29;20092;-69
2021/01/15 16:49:56;;;;;;;20.10;10.88;;;;;;;0.45;70.93;99700.16;4885179;29;20036;-69
2021/01/15 16:52:26;;;;;;;19.83;11.48;;;;;;;0.64;71.18;99704.25;4882733;29;20056;-70
2021/01/15 16:54:52;;;;;;;46.70;23.98;;;;;;;0.52;70.52;99709.75;4888389;29;20040;-70
2021/01/15 16:57:18;;;;;;;32.50;17.88;;;;;;;0.64;70.43;99712.78;4888466;29;20032;-70
2021/01/15 16:59:44;;;;;;;16.75;10.88;;;;;;;0.58;70.49;99720.22;4885345;29;20028;-70
2021/01/15 17:02:09;;;;;;;17.98;11.20;;;;;;;0.69;70.15;99720.59;4888016;29;20513;-70
2021/01/15 17:04:35;;;;;;;15.20;8.32;;;;;;;0.59;71.00;99719.38;4885824;29;20064;-70
2021/01/15 17:07:00;;;;;;;13.95;9.15;;;;;;;0.60;71.41;99723.66;4882773;29;21620;-69
2021/01/15 17:09:25;;;;;;;12.55;8.02;;;;;;;0.57;70.72;99726.09;4888381;29;20029;-70
2021/01/15 17:11:51;;;;;;;15.70;8.38;;;;;;;0.67;71.59;99728.16;4886356;29;20036;-69
2021/01/15 17:14:17;;;;;;;12.43;8.38;;;;;;;0.72;70.83;99724.09;4883046;29;20033;-72
2021/01/15 17:16:42;;;;;;;20.67;8.18;;;;;;;0.54;71.11;99726.00;4882388;29;20037;-71
2021/01/15 17:19:08;;;;;;;13.50;8.45;;;;;;;0.50;71.68;99734.34;4882779;29;20039;-71
2021/01/15 17:21:39;;;;;;;20.83;8.35;;;;;;;0.54;71.77;99731.09;4885784;29;20032;-72
2021/01/15 17:24:07;;;;;;;12.38;8.20;;;;;;;0.61;72.49;99733.03;4888495;29;20060;-70
2021/01/15 17:26:41;;;;;;;14.25;8.70;;;;;;;0.55;72.82;99737.94;4888239;29;20524;-70
2021/01/15 17:29:09;;;;;;;11.27;8.55;;;;;;;0.61;71.86;99732.19;4886706;29;20751;-70